createdAt,value
2019-06-20T00:01:47.087Z,4.10
2019-06-20T00:04:13.267Z,3.93
2019-06-20T00:06:39.785Z,4.40
2019-06-20T00:09:06.761Z,3.27
2019-06-20T00:11:33.170Z,3.37
2019-06-20T00:13:59.327Z,3.77
2019-06-20T00:16:25.498Z,3.70
2019-06-20T00:18:51.700Z,4.70
2019-06-20T00:21:18.173Z,3.40
2019-06-20T00:23:44.369Z,3.73
2019-06-20T00:26:10.635Z,3.43
2019-06-20T00:28:36.814Z,4.00
2019-06-20T00:31:03.109Z,3.40
2019-06-20T00:33:29.287Z,3.50
2019-06-20T00:35:55.471Z,4.50
2019-06-20T00:38:21.658Z,4.30
2019-06-20T00:40:47.886Z,3.53
2019-06-20T00:43:17.996Z,3.30
2019-06-20T00:45:42.499Z,3.80
2019-06-20T00:48:08.792Z,3.80
2019-06-20T00:50:34.974Z,3.40
2019-06-20T00:53:01.264Z,3.30
2019-06-20T00:55:27.559Z,3.20
2019-06-20T00:57:53.865Z,3.73
2019-06-20T01:00:20.609Z,3.33
2019-06-20T01:02:46.799Z,3.97
2019-06-20T01:05:13.123Z,3.40
2019-06-20T01:07:39.286Z,2.83
2019-06-20T01:10:06.648Z,3.57
2019-06-20T01:12:32.860Z,3.47
2019-06-20T01:14:59.037Z,3.67
2019-06-20T01:17:25.484Z,3.50
2019-06-20T01:19:51.695Z,3.60
2019-06-20T01:22:18.035Z,4.37
2019-06-20T01:24:44.203Z,3.83
2019-06-20T01:27:10.391Z,4.00
2019-06-20T01:29:36.590Z,4.57
2019-06-20T01:32:03.359Z,3.53
2019-06-20T01:34:29.871Z,3.70
2019-06-20T01:36:56.146Z,3.97
2019-06-20T01:39:22.735Z,4.10
2019-06-20T01:41:49.283Z,3.97
2019-06-20T01:44:15.471Z,4.37
2019-06-20T01:46:41.684Z,3.93
2019-06-20T01:49:07.947Z,3.40
2019-06-20T01:51:34.510Z,3.20
2019-06-20T01:54:00.995Z,3.03
2019-06-20T01:56:27.174Z,3.10
2019-06-20T01:58:53.364Z,3.30
2019-06-20T02:01:19.550Z,3.20
2019-06-20T02:03:45.751Z,3.13
2019-06-20T02:06:12.011Z,3.20
2019-06-20T02:08:38.590Z,3.20
2019-06-20T02:11:05.323Z,3.20
2019-06-20T02:13:31.533Z,2.87
2019-06-20T02:15:58.104Z,3.47
2019-06-20T02:18:24.271Z,3.23
2019-06-20T02:20:52.602Z,3.50
2019-06-20T02:23:19.785Z,2.80
2019-06-20T02:25:46.294Z,3.53
2019-06-20T02:28:13.087Z,3.70
2019-06-20T02:30:39.355Z,3.80
2019-06-20T02:33:05.663Z,3.90
2019-06-20T02:35:32.030Z,4.27
2019-06-20T02:37:58.221Z,3.87
2019-06-20T02:40:24.517Z,4.10
2019-06-20T02:42:50.715Z,4.33
2019-06-20T02:45:17.312Z,4.13
2019-06-20T02:47:43.537Z,5.57
2019-06-20T02:50:10.557Z,6.97
2019-06-20T02:52:37.207Z,5.77
2019-06-20T02:55:03.879Z,5.80
2019-06-20T02:57:30.095Z,5.10
2019-06-20T02:59:56.279Z,5.70
2019-06-20T03:02:22.878Z,5.43
2019-06-20T03:04:49.101Z,5.73
2019-06-20T03:07:15.355Z,4.73
2019-06-20T03:09:41.761Z,4.30
2019-06-20T03:12:08.012Z,4.43
2019-06-20T03:14:44.874Z,5.13
2019-06-20T03:17:02.431Z,4.50
2019-06-20T03:19:28.677Z,4.50
2019-06-20T03:21:54.850Z,4.53
2019-06-20T03:24:21.030Z,4.47
2019-06-20T03:26:47.533Z,5.03
2019-06-20T03:29:13.711Z,4.67
2019-06-20T03:31:40.013Z,4.30
2019-06-20T03:34:06.201Z,4.37
2019-06-20T03:36:32.580Z,4.00
2019-06-20T03:38:58.743Z,4.50
2019-06-20T03:41:25.020Z,3.87
2019-06-20T03:43:51.212Z,3.33
2019-06-20T03:46:17.462Z,4.23
2019-06-20T03:48:43.975Z,4.40
2019-06-20T03:51:10.515Z,4.43
2019-06-20T03:53:37.047Z,4.70
2019-06-20T03:56:03.258Z,5.07
2019-06-20T03:58:30.252Z,4.70
2019-06-20T04:00:56.762Z,4.00
2019-06-20T04:03:22.932Z,4.50
2019-06-20T04:05:49.151Z,4.50
2019-06-20T04:08:15.711Z,5.30
2019-06-20T04:10:41.960Z,4.47
2019-06-20T04:13:08.131Z,4.80
2019-06-20T04:15:34.438Z,4.80
2019-06-20T04:18:00.616Z,4.70
2019-06-20T04:20:26.795Z,4.70
2019-06-20T04:22:53.084Z,4.90
2019-06-20T04:25:19.664Z,4.80
2019-06-20T04:27:46.179Z,4.70
2019-06-20T04:30:12.650Z,5.07
2019-06-20T04:32:39.151Z,4.30
2019-06-20T04:35:05.679Z,4.87
2019-06-20T04:37:31.888Z,5.20
2019-06-20T04:39:58.348Z,4.10
2019-06-20T04:42:24.572Z,4.60
2019-06-20T04:44:52.975Z,3.90
2019-06-20T04:47:19.173Z,4.53
2019-06-20T04:49:45.449Z,4.40
2019-06-20T04:52:11.629Z,4.30
2019-06-20T04:54:37.821Z,3.83
2019-06-20T04:57:04.244Z,3.93
2019-06-20T04:59:30.527Z,4.00
2019-06-20T05:01:56.787Z,3.57
2019-06-20T05:04:23.075Z,3.70
2019-06-20T05:06:53.077Z,4.03
2019-06-20T05:09:19.264Z,4.10
2019-06-20T05:11:45.562Z,4.20
2019-06-20T05:14:11.752Z,3.57
2019-06-20T05:16:37.947Z,4.07
2019-06-20T05:19:04.116Z,4.57
2019-06-20T05:21:30.571Z,3.90
2019-06-20T05:23:56.735Z,4.20
2019-06-20T05:26:22.919Z,4.67
2019-06-20T05:28:49.148Z,4.17
2019-06-20T05:31:15.320Z,4.87
2019-06-20T05:33:41.824Z,5.27
2019-06-20T05:36:08.013Z,4.70
2019-06-20T05:38:34.260Z,4.23
2019-06-20T05:41:00.614Z,4.67
2019-06-20T05:43:27.302Z,4.70
2019-06-20T05:46:08.345Z,4.53
2019-06-20T05:48:21.899Z,3.73
2019-06-20T05:50:48.581Z,4.37
2019-06-20T05:53:14.982Z,4.73
2019-06-20T05:55:41.287Z,4.27
2019-06-20T05:58:07.659Z,4.20
2019-06-20T06:00:33.955Z,4.90
2019-06-20T06:03:00.260Z,4.30
2019-06-20T06:05:26.507Z,4.60
2019-06-20T06:07:52.723Z,5.03
2019-06-20T06:10:19.118Z,4.60
2019-06-20T06:12:45.422Z,3.83
2019-06-20T06:15:12.707Z,4.43
2019-06-20T06:17:38.900Z,4.60
2019-06-20T06:20:06.202Z,4.70
2019-06-20T06:22:32.395Z,4.80
2019-06-20T06:24:58.600Z,4.40
2019-06-20T06:27:24.793Z,5.80
2019-06-20T06:29:51.096Z,4.80
2019-06-20T06:32:20.108Z,4.80
2019-06-20T06:34:45.737Z,4.20
2019-06-20T06:37:11.977Z,5.43
2019-06-20T06:39:38.347Z,4.30
2019-06-20T06:42:04.559Z,5.50
2019-06-20T06:44:31.775Z,5.10
2019-06-20T06:46:59.761Z,3.90
2019-06-20T06:49:26.277Z,4.60
2019-06-20T06:51:52.546Z,4.80
2019-06-20T06:54:18.734Z,3.77
2019-06-20T06:56:44.944Z,3.53
2019-06-20T06:59:11.156Z,3.30
2019-06-20T07:01:37.342Z,3.07
2019-06-20T07:04:03.837Z,3.23
2019-06-20T07:06:30.030Z,2.80
2019-06-20T07:08:56.248Z,3.43
2019-06-20T07:11:22.705Z,3.33
2019-06-20T07:13:48.912Z,6.03
2019-06-20T07:16:15.470Z,3.53
2019-06-20T07:18:41.906Z,3.00
2019-06-20T07:21:08.208Z,3.60
2019-06-20T07:23:34.395Z,3.50
2019-06-20T07:26:00.592Z,4.00
2019-06-20T07:28:26.783Z,3.40
2019-06-20T07:30:53.218Z,3.97
2019-06-20T07:33:19.400Z,3.13
2019-06-20T07:35:46.025Z,3.33
2019-06-20T07:38:12.297Z,2.77
2019-06-20T07:40:41.089Z,2.80
2019-06-20T07:43:07.559Z,3.10
2019-06-20T07:45:34.248Z,3.43
2019-06-20T07:48:00.554Z,3.20
2019-06-20T07:50:26.842Z,3.10
2019-06-20T07:53:02.073Z,2.63
2019-06-20T07:55:21.121Z,3.07
2019-06-20T07:57:47.319Z,4.03
2019-06-20T08:00:16.037Z,3.13
2019-06-20T08:02:42.419Z,2.53
2019-06-20T08:05:10.073Z,2.43
2019-06-20T08:07:36.443Z,2.10
2019-06-20T08:10:08.762Z,2.30
2019-06-20T08:12:35.171Z,2.47
2019-06-20T08:15:14.449Z,2.60
2019-06-20T08:17:35.491Z,1.90
2019-06-20T08:19:57.652Z,1.80
2019-06-20T08:22:23.928Z,1.90
2019-06-20T08:24:50.095Z,2.27
2019-06-20T08:27:18.228Z,1.90
2019-06-20T08:29:44.459Z,1.80
2019-06-20T08:32:10.792Z,1.90
2019-06-20T08:34:36.966Z,2.03
2019-06-20T08:37:04.385Z,2.17
2019-06-20T08:39:30.927Z,2.00
2019-06-20T08:41:58.913Z,2.17
2019-06-20T08:44:25.287Z,1.67
2019-06-20T08:46:51.488Z,2.00
2019-06-20T08:49:17.713Z,2.17
2019-06-20T08:51:44.264Z,2.30
2019-06-20T08:54:10.459Z,1.87
2019-06-20T08:56:36.666Z,2.20
2019-06-20T08:59:03.643Z,2.00
2019-06-20T09:01:31.041Z,2.10
2019-06-20T09:03:58.289Z,2.03
2019-06-20T09:06:24.946Z,1.60
2019-06-20T09:08:51.544Z,1.97
2019-06-20T09:11:17.733Z,1.80
2019-06-20T09:13:44.218Z,1.87
2019-06-20T09:16:23.964Z,1.80
2019-06-20T09:18:38.512Z,2.10
2019-06-20T09:21:05.448Z,2.80
2019-06-20T09:23:31.692Z,3.27
2019-06-20T09:25:57.892Z,2.07
2019-06-20T09:28:24.093Z,1.80
2019-06-20T09:30:50.697Z,1.73
2019-06-20T09:33:18.104Z,1.50
2019-06-20T09:35:44.306Z,1.70
2019-06-20T09:38:10.583Z,1.50
2019-06-20T09:40:36.863Z,1.90
2019-06-20T09:43:03.758Z,1.80
2019-06-20T09:45:30.173Z,2.17
2019-06-20T09:47:56.371Z,2.00
2019-06-20T09:50:23.163Z,1.93
2019-06-20T09:52:51.148Z,1.90
2019-06-20T09:55:18.194Z,1.80
2019-06-20T09:57:44.469Z,1.60
2019-06-20T10:00:15.471Z,1.60
2019-06-20T10:02:41.769Z,1.43
2019-06-20T10:05:08.971Z,1.30
2019-06-20T10:07:35.356Z,1.00
2019-06-20T10:10:04.718Z,1.20
2019-06-20T10:12:30.985Z,1.00
2019-06-20T10:14:57.431Z,1.20
2019-06-20T10:17:23.618Z,1.20
2019-06-20T10:19:49.874Z,1.20
2019-06-20T10:22:16.557Z,1.20
2019-06-20T10:24:42.750Z,1.03
2019-06-20T10:27:09.020Z,1.40
2019-06-20T10:29:35.318Z,1.87
2019-06-20T10:32:01.835Z,1.33
2019-06-20T10:34:31.077Z,1.30
2019-06-20T10:36:57.129Z,1.20
2019-06-20T10:39:23.452Z,1.03
2019-06-20T10:41:50.251Z,1.17
2019-06-20T10:44:16.569Z,1.50
2019-06-20T10:46:52.013Z,1.20
2019-06-20T10:49:13.242Z,2.07
2019-06-20T10:51:42.549Z,1.60
2019-06-20T10:54:09.879Z,1.20
2019-06-20T10:56:36.171Z,1.40
2019-06-20T10:59:03.098Z,9.70
2019-06-20T11:01:29.498Z,2.50
2019-06-20T11:03:55.867Z,1.40
2019-06-20T11:06:22.198Z,1.80
2019-06-20T11:08:49.476Z,1.10
2019-06-20T11:11:15.921Z,1.40
2019-06-20T11:13:42.216Z,1.40
2019-06-20T11:16:08.480Z,1.60
2019-06-20T11:18:34.675Z,1.43
2019-06-20T11:21:00.874Z,1.80
2019-06-20T11:23:27.148Z,1.90
2019-06-20T11:25:53.337Z,9.97
2019-06-20T11:28:19.678Z,1.80
2019-06-20T11:30:56.382Z,2.00
2019-06-20T11:33:14.423Z,1.83
2019-06-20T11:35:41.858Z,1.53
2019-06-20T11:38:08.187Z,1.80
2019-06-20T11:40:36.213Z,1.70
2019-06-20T11:43:02.737Z,1.90
2019-06-20T11:45:29.029Z,1.80
2019-06-20T11:47:55.439Z,1.83
2019-06-20T11:50:23.123Z,1.60
2019-06-20T11:52:49.309Z,1.80
2019-06-20T11:55:16.007Z,1.97
2019-06-20T11:57:42.395Z,2.17
2019-06-20T12:00:08.875Z,1.80
2019-06-20T12:02:35.040Z,1.57
2019-06-20T12:05:01.681Z,1.60
2019-06-20T12:07:27.943Z,1.67
2019-06-20T12:09:54.140Z,1.53
2019-06-20T12:12:20.336Z,1.73
2019-06-20T12:14:46.852Z,1.93
2019-06-20T12:17:13.285Z,2.00
2019-06-20T12:19:40.819Z,1.60
2019-06-20T12:22:07.404Z,1.90
2019-06-20T12:24:33.579Z,2.43
2019-06-20T12:26:59.873Z,2.20
2019-06-20T12:29:26.084Z,1.97
2019-06-20T12:31:52.892Z,1.77
2019-06-20T12:34:19.286Z,2.50
2019-06-20T12:36:46.628Z,1.90
2019-06-20T12:39:12.999Z,1.90
2019-06-20T12:41:39.705Z,2.10
2019-06-20T12:44:06.629Z,1.63
2019-06-20T12:46:32.825Z,1.73
2019-06-20T12:48:59.019Z,1.47
2019-06-20T12:51:25.538Z,5.37
2019-06-20T12:53:51.739Z,1.40
2019-06-20T12:56:17.911Z,2.20
2019-06-20T12:58:44.500Z,1.40
2019-06-20T13:01:10.800Z,1.70
2019-06-20T13:03:38.531Z,2.30
2019-06-20T13:06:05.436Z,2.10
2019-06-20T13:08:31.734Z,4.30
2019-06-20T13:10:58.040Z,1.37
2019-06-20T13:13:24.825Z,1.90
2019-06-20T13:15:51.044Z,1.50
2019-06-20T13:18:37.203Z,1.30
2019-06-20T13:21:03.600Z,2.00
2019-06-20T13:23:29.816Z,1.83
2019-06-20T13:25:56.103Z,1.83
2019-06-20T13:28:22.295Z,1.70
2019-06-20T13:30:51.655Z,1.50
2019-06-20T13:33:16.602Z,2.00
2019-06-20T13:35:43.780Z,1.90
2019-06-20T13:38:10.217Z,2.20
2019-06-20T13:40:36.788Z,2.03
2019-06-20T13:43:02.953Z,1.97
2019-06-20T13:45:29.461Z,2.20
2019-06-20T13:47:55.745Z,2.10
2019-06-20T13:50:23.865Z,2.83
2019-06-20T13:52:51.332Z,2.80
2019-06-20T13:55:17.995Z,3.07
2019-06-20T13:57:45.338Z,3.57
2019-06-20T14:00:13.812Z,3.20
2019-06-20T14:02:41.387Z,3.27
2019-06-20T14:05:09.004Z,2.60
2019-06-20T14:07:35.184Z,3.77
2019-06-20T14:10:03.955Z,3.73
2019-06-20T14:12:30.203Z,3.03
2019-06-20T14:14:56.407Z,2.83
2019-06-20T14:17:22.579Z,2.70
2019-06-20T14:19:48.783Z,3.13
2019-06-20T14:22:14.955Z,3.40
2019-06-20T14:24:43.408Z,3.17
2019-06-20T14:27:09.256Z,2.83
2019-06-20T14:29:35.511Z,2.77
2019-06-20T14:32:01.819Z,3.30
2019-06-20T14:34:27.994Z,3.10
2019-06-20T14:36:54.190Z,2.87
2019-06-20T14:39:20.401Z,3.67
2019-06-20T14:41:46.671Z,3.13
2019-06-20T14:44:12.859Z,3.10
2019-06-20T14:46:39.171Z,2.97
2019-06-20T14:49:05.634Z,3.33
2019-06-20T14:51:31.930Z,3.40
2019-06-20T14:53:58.115Z,3.50
2019-06-20T14:56:24.318Z,4.73
2019-06-20T14:58:51.572Z,4.00
2019-06-20T15:01:18.003Z,2.73
2019-06-20T15:03:45.589Z,3.33
2019-06-20T15:06:12.571Z,2.97
2019-06-20T15:08:38.806Z,2.90
2019-06-20T15:11:05.440Z,3.13
2019-06-20T15:13:31.616Z,3.23
2019-06-20T15:15:57.817Z,2.93
2019-06-20T15:18:23.991Z,2.77
2019-06-20T15:20:50.311Z,2.50
2019-06-20T15:23:16.867Z,2.60
2019-06-20T15:25:43.080Z,2.30
2019-06-20T15:28:09.302Z,3.40
2019-06-20T15:30:35.686Z,3.47
2019-06-20T15:33:10.020Z,2.73
2019-06-20T15:35:30.275Z,3.03
2019-06-20T15:37:57.726Z,2.43
2019-06-20T15:40:24.223Z,2.90
2019-06-20T15:42:51.533Z,2.80
2019-06-20T15:45:18.717Z,2.83
2019-06-20T15:47:45.313Z,2.90
2019-06-20T15:50:12.338Z,2.80
2019-06-20T15:52:39.613Z,2.80
2019-06-20T15:55:06.495Z,3.57
2019-06-20T15:57:32.679Z,3.80
2019-06-20T15:59:58.846Z,3.47
2019-06-20T16:02:25.043Z,3.90
2019-06-20T16:04:51.210Z,4.00
2019-06-20T16:07:17.419Z,4.20
2019-06-20T16:09:43.928Z,4.20
2019-06-20T16:12:10.123Z,4.70
2019-06-20T16:14:36.582Z,4.40
2019-06-20T16:17:02.976Z,5.10
2019-06-20T16:19:29.167Z,5.70
2019-06-20T16:21:55.373Z,5.40
2019-06-20T16:24:21.799Z,4.30
2019-06-20T16:26:47.990Z,5.10
2019-06-20T16:29:14.193Z,5.47
2019-06-20T16:31:40.383Z,5.43
2019-06-20T16:34:06.687Z,5.03
2019-06-20T16:36:32.886Z,5.80
2019-06-20T16:38:59.055Z,5.20
2019-06-20T16:41:25.247Z,4.37
2019-06-20T16:43:51.513Z,3.80
2019-06-20T16:46:17.739Z,2.87
2019-06-20T16:48:44.022Z,2.60
2019-06-20T16:51:10.299Z,2.90
2019-06-20T16:53:36.482Z,2.70
2019-06-20T16:56:03.380Z,2.30
2019-06-20T16:58:29.677Z,2.37
2019-06-20T17:00:55.898Z,1.90
2019-06-20T17:03:22.292Z,1.93
2019-06-20T17:05:48.578Z,1.67
2019-06-20T17:08:15.035Z,1.93
2019-06-20T17:10:41.301Z,1.40
2019-06-20T17:13:07.586Z,1.60
2019-06-20T17:15:33.763Z,1.80
2019-06-20T17:18:00.160Z,1.83
2019-06-20T17:20:26.542Z,2.20
2019-06-20T17:22:52.840Z,1.80
2019-06-20T17:25:19.220Z,1.67
2019-06-20T17:27:45.439Z,1.90
2019-06-20T17:30:14.559Z,2.40
2019-06-20T17:32:41.300Z,2.20
2019-06-20T17:35:07.801Z,1.77
2019-06-20T17:37:34.378Z,1.30
2019-06-20T17:40:00.910Z,3.57
2019-06-20T17:42:27.118Z,2.30
2019-06-20T17:44:53.346Z,1.60
2019-06-20T17:47:19.561Z,1.63
2019-06-20T17:49:45.758Z,2.43
2019-06-20T17:52:11.948Z,1.63
2019-06-20T17:54:38.316Z,1.40
2019-06-20T17:57:04.527Z,1.30
2019-06-20T17:59:30.771Z,1.53
2019-06-20T18:01:56.947Z,1.70
2019-06-20T18:04:26.533Z,1.10
2019-06-20T18:06:51.296Z,1.37
2019-06-20T18:09:17.492Z,1.20
2019-06-20T18:11:44.770Z,1.50
2019-06-20T18:14:11.056Z,1.50
2019-06-20T18:16:37.290Z,1.50
2019-06-20T18:19:03.594Z,1.40
2019-06-20T18:21:29.781Z,1.23
2019-06-20T18:23:55.984Z,1.30
2019-06-20T18:26:22.756Z,1.10
2019-06-20T18:28:48.967Z,1.70
2019-06-20T18:31:15.488Z,2.13
2019-06-20T18:33:41.684Z,4.10
2019-06-20T18:36:08.244Z,1.50
2019-06-20T18:38:34.468Z,1.67
2019-06-20T18:41:00.657Z,2.07
2019-06-20T18:43:27.235Z,1.60
2019-06-20T18:45:53.526Z,1.93
2019-06-20T18:48:19.840Z,2.00
2019-06-20T18:50:46.011Z,1.93
2019-06-20T18:53:12.196Z,1.70
2019-06-20T18:55:38.399Z,1.60
2019-06-20T18:58:05.058Z,2.27
2019-06-20T19:00:34.889Z,1.70
2019-06-20T19:02:59.750Z,1.70
2019-06-20T19:05:26.133Z,2.07
2019-06-20T19:07:52.328Z,1.73
2019-06-20T19:10:22.964Z,2.37
2019-06-20T19:12:49.732Z,1.73
2019-06-20T19:15:17.011Z,1.80
2019-06-20T19:17:43.204Z,2.13
2019-06-20T19:20:09.891Z,1.73
2019-06-20T19:22:37.232Z,1.90
2019-06-20T19:25:06.882Z,2.10
2019-06-20T19:27:45.529Z,1.90
2019-06-20T19:30:05.172Z,2.23
2019-06-20T19:32:31.348Z,2.23
2019-06-20T19:35:01.829Z,2.10
2019-06-20T19:37:25.624Z,2.90
2019-06-20T19:39:51.807Z,2.90
2019-06-20T19:42:20.536Z,3.03
2019-06-20T19:44:46.407Z,2.90
2019-06-20T19:47:13.124Z,4.90
2019-06-20T19:49:39.652Z,3.90
2019-06-20T19:52:05.909Z,3.30
2019-06-20T19:54:32.399Z,3.80
2019-06-20T19:56:58.579Z,4.17
2019-06-20T19:59:24.881Z,3.27
2019-06-20T20:01:51.151Z,6.30
2019-06-20T20:04:17.330Z,5.20
2019-06-20T20:06:43.970Z,6.70
2019-06-20T20:09:10.151Z,8.67
2019-06-20T20:11:36.455Z,6.90
2019-06-20T20:14:02.707Z,8.10
2019-06-20T20:16:28.918Z,7.83
2019-06-20T20:18:55.097Z,7.60
2019-06-20T20:21:21.292Z,8.30
2019-06-20T20:23:47.836Z,8.00
2019-06-20T20:26:14.156Z,8.37
2019-06-20T20:28:40.469Z,7.67
2019-06-20T20:31:06.817Z,7.80
2019-06-20T20:33:33.076Z,8.30
2019-06-20T20:36:01.926Z,8.83
2019-06-20T20:38:27.657Z,8.77
2019-06-20T20:40:53.952Z,10.10
2019-06-20T20:43:20.259Z,9.50
2019-06-20T20:45:46.450Z,9.43
2019-06-20T20:48:12.741Z,9.90
2019-06-20T20:50:38.912Z,10.67
2019-06-20T20:53:05.115Z,9.30
2019-06-20T20:55:31.319Z,10.00
2019-06-20T20:57:57.603Z,9.00
2019-06-20T21:00:27.134Z,9.33
2019-06-20T21:02:53.736Z,9.67
2019-06-20T21:05:50.930Z,9.20
2019-06-20T21:08:08.030Z,4.90
2019-06-20T21:10:34.325Z,4.60
2019-06-20T21:13:00.583Z,4.20
2019-06-20T21:15:26.899Z,4.77
2019-06-20T21:17:55.696Z,5.50
2019-06-20T21:20:21.216Z,5.10
2019-06-20T21:22:47.391Z,5.57
2019-06-20T21:25:13.798Z,5.70
2019-06-20T21:27:40.318Z,7.17
2019-06-20T21:30:07.720Z,7.20
2019-06-20T21:32:34.312Z,6.60
2019-06-20T21:35:00.516Z,7.47
2019-06-20T21:37:26.683Z,11.63
2019-06-20T21:39:52.888Z,11.30
2019-06-20T21:42:19.121Z,10.80
2019-06-20T21:44:45.332Z,11.33
2019-06-20T21:47:11.650Z,11.57
2019-06-20T21:49:37.911Z,12.30
2019-06-20T21:52:04.105Z,11.73
2019-06-20T21:54:30.275Z,12.90
2019-06-20T21:56:56.467Z,13.37
2019-06-20T21:59:22.656Z,14.83
2019-06-20T22:01:49.053Z,15.10
2019-06-20T22:04:15.347Z,14.97
2019-06-20T22:06:41.647Z,15.10
2019-06-20T22:09:08.127Z,17.20
2019-06-20T22:11:34.321Z,17.13
2019-06-20T22:14:00.587Z,16.07
2019-06-20T22:16:26.870Z,15.40
2019-06-20T22:18:53.059Z,18.40
2019-06-20T22:21:19.275Z,16.70
2019-06-20T22:23:45.468Z,18.17
2019-06-20T22:26:11.658Z,16.70
2019-06-20T22:28:37.827Z,17.03
2019-06-20T22:31:04.391Z,17.87
2019-06-20T22:33:30.679Z,15.93
2019-06-20T22:35:56.995Z,17.57
2019-06-20T22:38:23.280Z,16.43
2019-06-20T22:40:49.494Z,18.70
2019-06-20T22:43:15.688Z,16.40
2019-06-20T22:45:41.981Z,18.50
2019-06-20T22:48:08.524Z,18.57
2019-06-20T22:50:34.943Z,18.60
2019-06-20T22:53:01.367Z,16.50
2019-06-20T22:55:27.906Z,18.60
2019-06-20T22:57:54.359Z,19.10
2019-06-20T23:00:21.063Z,18.70
2019-06-20T23:02:47.527Z,17.30
2019-06-20T23:05:13.941Z,17.23
2019-06-20T23:07:40.541Z,17.80
2019-06-20T23:10:10.821Z,16.70
2019-06-20T23:12:35.548Z,17.17
2019-06-20T23:15:03.291Z,17.73
2019-06-20T23:17:29.469Z,17.80
2019-06-20T23:19:55.927Z,17.17
2019-06-20T23:22:22.107Z,16.77
2019-06-20T23:24:48.291Z,17.93
2019-06-20T23:27:14.481Z,16.73
2019-06-20T23:29:40.677Z,16.30
2019-06-20T23:32:06.867Z,18.30
2019-06-20T23:34:33.063Z,16.73
2019-06-20T23:37:12.135Z,15.50
2019-06-20T23:39:28.361Z,15.53
2019-06-20T23:41:55.094Z,16.57
2019-06-20T23:44:21.270Z,15.30
2019-06-20T23:46:49.752Z,15.67
2019-06-20T23:49:15.923Z,15.47
2019-06-20T23:51:56.283Z,16.40
2019-06-20T23:54:22.511Z,15.97
2019-06-20T23:56:48.734Z,14.93
2019-06-20T23:59:14.902Z,14.43
